Nearby METAR Reports

 

EGEO - Oban, United Kingdom
Distance from station: SSW 18mi, 30km
Updated: 24/04/2019 08:50
Clear
Clear
 Wind from ESE
Wind: ESE 13 mph , 20 km/h
Temperature: 14°C
Dew Point: 5°C
Humidity: 55%
Barometer: 995 hPa
Summary: Clear
Visibility: greater than 7 miles , 10 km
2019/04/24 07:50 EGEO 240750Z 11011KT CAVOK 14/05 Q0995
EGPU - Tiree, United Kingdom
Distance from station: WSW 64mi, 103km
Updated: 24/04/2019 04:20
NOT Current
Clear
Clear
 Wind from ESE
Wind: ESE 24 mph , 39 km/h
Temperature: 12°C
Dew Point: 5°C
Humidity: 63%
Barometer: 994 hPa
Clouds: Clear
Visibility: 6 miles , 10 km
2019/04/24 03:20 EGPU 240320Z AUTO 11021KT 9999 NCD 12/05 Q0994
EGPF - Glasgow, United Kingdom
Distance from station: SSE 66mi, 107km
Updated: 24/04/2019 08:20
Mostly cloudy
Mostly cloudy
 Wind from E
Wind: E 15 mph , 24 km/h, Gust: 26 mph , 43 km/h
Temperature: 9°C
Wind Chill: 6°C
Dew Point: 7°C
Humidity: 87%
Barometer: 996 hPa
Clouds: Mostly cloudy
Visibility: 5 miles , 8 km
Cloud details: Mostly cloudy 366 m
2019/04/24 07:20 EGPF 240720Z 08013G23KT 040V100 8000 BKN012CB 09/07 Q0996
 
EGPE - Inverness, United Kingdom
Distance from station: NE 71mi, 114km
Updated: 24/04/2019 08:20
Few Clouds
Few Clouds
 Wind from NE
Wind: NE 9 mph , 15 km/h
Temperature: 10°C
Wind Chill: 8°C
Dew Point: 7°C
Humidity: 82%
Barometer: 1000 hPa
Clouds: Few Clouds
Visibility: 5 miles , 8 km
Cloud details: Few Clouds 732 m
2019/04/24 07:20 EGPE 240720Z 04008KT 8000 FEW024 10/07 Q1000
EGPI - Islay/Port Ellen, United Kingdom
Distance from station: SSW 81mi, 131km
Updated: 24/04/2019 08:20
Few Clouds
Few Clouds
 Wind from E
Wind: E 25 mph , 41 km/h, Gust: 37 mph , 59 km/h
Temperature: 11°C
Dew Point: 6°C
Humidity: 72%
Barometer: 993 hPa
Clouds: Few Clouds
Visibility: 6 miles , 10 km
Cloud details: Few Clouds 457 m
2019/04/24 07:20 EGPI 240720Z 08022G32KT 040V110 9999 FEW015 11/06 Q0993
EGPN - Dundee/Riverside, United Kingdom
Distance from station: E 86mi, 138km
Updated: 24/04/2019 08:20
Mostly cloudy
Mostly cloudy
 Wind from ENE
Wind: ENE 12 mph , 19 km/h
Temperature: 10°C
Wind Chill: 7°C
Dew Point: 8°C
Humidity: 88%
Barometer: 998 hPa
Clouds: Mostly cloudy
Visibility: 4 miles , 6 km
Cloud details: Mostly cloudy 427 m
2019/04/24 07:20 EGPN 240720Z 07010KT 040V100 6000 BKN014 10/08 Q0998
 
EGPK - Prestwick, United Kingdom
Distance from station: SSE 88mi, 141km
Updated: 24/04/2019 08:20
Few Clouds
Few Clouds
 Wind from ENE
Wind: ENE 7 mph , 11 km/h, Gust: 20 mph , 31 km/h
Temperature: 10°C
Wind Chill: 8°C
Dew Point: 7°C
Humidity: 82%
Barometer: 995 hPa
Clouds: Few Clouds
Visibility: 6 miles , 10 km
Cloud details: Few Clouds 1372 m
2019/04/24 07:20 EGPK 240720Z 07006G17KT 9999 FEW045 10/07 Q0995
EGPH - Edinburgh, United Kingdom
Distance from station: SE 89mi, 143km
Updated: 24/04/2019 08:20
Overcast
Overcast
 Wind from ENE
Wind: ENE 15 mph , 24 km/h
Temperature: 9°C
Wind Chill: 6°C
Dew Point: 8°C
Humidity: 94%
Barometer: 997 hPa
Clouds: Overcast
Visibility: 4 miles , 6 km
Cloud details: Overcast 183 m
2019/04/24 07:20 EGPH 240720Z 06013KT 6000 OVC006 09/08 Q0997
EGQK - RAF Kinloss, United Kingdom
Distance from station: NE 90mi, 144km
Updated: 24/04/2019 07:50
Haze, Partly cloudy
Haze, Partly cloudy
 Wind from ENE
Wind: ENE 8 mph , 13 km/h
Temperature: 10°C
Wind Chill: 8°C
Dew Point: 6°C
Humidity: 76%
Barometer: 1000 hPa
Summary: Haze
Clouds: Partly cloudy
Visibility: 5 miles , 8 km
Cloud details: Partly cloudy 610 m
2019/04/24 06:50 EGQK 240650Z AUTO 06007KT 8000 HZ SCT020/// 10/06 Q1000
 
EGEC - Campbeltown, United Kingdom
Distance from station: S 90mi, 145km
Updated: 24/04/2019 08:20
Clear
Clear
 Wind from E
Wind: E 25 mph , 41 km/h
Temperature: 11°C
Dew Point: 7°C
Humidity: 77%
Barometer: 992 hPa
Summary: Clear
Visibility: greater than 7 miles , 10 km
2019/04/24 07:20 EGEC 240720Z 08022KT CAVOK 11/07 Q0992
EGQA - Tain Range, United Kingdom
Distance from station: NNE 91mi, 146km
Updated: 23/04/2019 15:50
NOT Current
Partly cloudy
Partly cloudy
 Wind from ENE
Wind: ENE 17 mph , 28 km/h
Clouds: Partly cloudy
Visibility: 6 miles , 10 km
Cloud details: Few Clouds 335 m
Partly cloudy 1829 m
2019/04/23 14:50 EGQA 231450Z 07015KT 9999 FEW011 SCT060 14/// Q1002 BLU
EGQL - RAF Leuchars, United Kingdom
Distance from station: ESE 93mi, 149km
Updated: 24/04/2019 07:50
Haze, Mostly cloudy
Haze, Mostly cloudy
 Wind from ENE
Wind: ENE 13 mph , 20 km/h
Temperature: 9°C
Wind Chill: 6°C
Dew Point: 7°C
Humidity: 87%
Barometer: 998 hPa
Summary: Haze
Clouds: Mostly cloudy
Visibility: 4 miles , 6 km
Cloud details: Partly cloudy 488 m
Mostly cloudy 1829 m
2019/04/24 06:50 EGQL 240650Z 06011KT 6000 HZ SCT016 BKN060 09/07 Q0998 WHT
 
EGPL - Benbecula, United Kingdom
Distance from station: WNW 96mi, 154km
Updated: 24/04/2019 08:20
Clear
Clear
 Wind from E
Wind: E 5 mph , 7 km/h
Temperature: 13°C
Dew Point: 5°C
Humidity: 59%
Barometer: 995 hPa
Summary: Clear
Visibility: greater than 7 miles , 10 km
2019/04/24 07:20 EGPL 240720Z 08004KT CAVOK 13/05 Q0995
EGQS - RAF Lossiemouth, United Kingdom
Distance from station: NE 99mi, 160km
Updated: 24/04/2019 07:50
Few Clouds
Few Clouds
 Wind from ESE
Wind: ESE 10 mph , 17 km/h
Temperature: 10°C
Wind Chill: 8°C
Dew Point: 6°C
Humidity: 76%
Barometer: 1000 hPa
Clouds: Few Clouds
Visibility: 6 miles , 10 km
Cloud details: Few Clouds 610 m
2019/04/24 06:50 EGQS 240650Z 11009KT 9999 FEW020 10/06 Q1000 BLU NOSIG
EGPO - Stornoway, United Kingdom
Distance from station: NNW 111mi, 179km
Updated: 24/04/2019 08:20
Clear
Clear
 Wind from ESE
Wind: ESE 15 mph , 24 km/h
Temperature: 12°C
Dew Point: 5°C
Humidity: 63%
Barometer: 997 hPa
Summary: Clear
Visibility: greater than 7 miles , 10 km
2019/04/24 07:20 EGPO 240720Z 12013KT CAVOK 12/05 Q0997
 
EGPD - Aberdeen/Dyce, United Kingdom
Distance from station: ENE 118mi, 190km
Updated: 24/04/2019 08:20
Mostly cloudy
Mostly cloudy
 Wind from ESE
Wind: ESE 10 mph , 17 km/h
Temperature: 9°C
Wind Chill: 7°C
Dew Point: 7°C
Humidity: 87%
Barometer: 1001 hPa
Clouds: Mostly cloudy
Visibility: 4 miles , 6 km
Cloud details: Mostly cloudy 305 m
2019/04/24 07:20 EGPD 240720Z 11009KT 080V160 6000 BKN010 09/07 Q1001 TEMPO SCT010
EGAE - Eglinton/Londond, United Kingdom
Distance from station: SSW 138mi, 222km
Updated: 24/04/2019 08:20
Clear
Clear
 Wind from ENE
Wind: ENE 12 mph , 19 km/h
Temperature: 11°C
Dew Point: 7°C
Humidity: 77%
Barometer: 992 hPa
Summary: Clear
Visibility: greater than 7 miles , 10 km
2019/04/24 07:20 EGAE 240720Z 07010KT CAVOK 11/07 Q0992
EGPC - Wick, United Kingdom
Distance from station: NNE 144mi, 232km
Updated: 24/04/2019 08:20
Partly cloudy
Partly cloudy
 Wind from SE
Wind: SE 18 mph , 30 km/h
Temperature: 10°C
Wind Chill: 7°C
Dew Point: 7°C
Humidity: 82%
Barometer: 1002 hPa
Clouds: Partly cloudy
Visibility: 4 miles , 7 km
2019/04/24 07:20 EGPC 240720Z 14016KT 7000 NSC 10/07 Q1002

Metar display script from Saratoga-Weather.org